Time;durP1;ratioP1;P1;durP2;ratioP2;P2;SDS_P1;SDS_P2;PMS_P1;PMS_P2;Temp;Humidity;BMP_temperature;BMP_pressure;BME280_temperature;BME280_humidity;BME280_pressure;Samples;Min_cycle;Max_cycle;Signal;HPM_P1;HPM_P2
2023/05/14 00:01:06;;;;;;;0.20;0.20;;;9.20;99.90;;;;;;5032078;28;20029;-67
2023/05/14 00:03:32;;;;;;;0.20;0.20;;;9.20;99.90;;;;;;5032944;28;20032;-67
2023/05/14 00:05:58;;;;;;;0.20;0.20;;;9.20;99.90;;;;;;5032880;28;20386;-68
2023/05/14 00:08:23;;;;;;;0.20;0.20;;;9.20;99.90;;;;;;5032433;28;20525;-67
2023/05/14 00:10:49;;;;;;;0.20;0.20;;;9.20;99.90;;;;;;5032329;28;20030;-67
2023/05/14 00:13:14;;;;;;;0.30;0.30;;;9.20;99.90;;;;;;5032601;28;20509;-68
2023/05/14 00:15:40;;;;;;;0.13;0.13;;;9.20;99.90;;;;;;5032516;28;20499;-67
2023/05/14 00:18:05;;;;;;;0.20;0.20;;;9.10;99.90;;;;;;5032440;28;20080;-67
2023/05/14 00:20:31;;;;;;;0.20;0.20;;;9.10;99.90;;;;;;5032694;28;20049;-68
2023/05/14 00:22:57;;;;;;;0.20;0.20;;;9.00;99.90;;;;;;5032477;28;20079;-67
2023/05/14 00:25:22;;;;;;;0.17;0.17;;;9.10;99.90;;;;;;5031913;28;20479;-67
2023/05/14 00:27:48;;;;;;;0.20;0.20;;;9.00;99.90;;;;;;5032340;28;20026;-67
2023/05/14 00:30:13;;;;;;;0.10;0.10;;;9.00;99.90;;;;;;5032439;28;20152;-68
2023/05/14 00:32:39;;;;;;;0.10;0.10;;;9.00;99.90;;;;;;5033942;28;20061;-68
2023/05/14 00:35:05;;;;;;;0.20;0.20;;;9.00;99.90;;;;;;5035927;28;20030;-67
2023/05/14 00:37:30;;;;;;;0.20;0.20;;;9.10;99.90;;;;;;5035751;28;20033;-67
2023/05/14 00:39:57;;;;;;;0.20;0.20;;;9.10;99.90;;;;;;5035291;28;20056;-68
2023/05/14 00:42:22;;;;;;;0.20;0.20;;;9.10;99.90;;;;;;5036028;28;20029;-68
2023/05/14 00:44:48;;;;;;;0.20;0.20;;;9.20;99.90;;;;;;5035768;28;20021;-68
2023/05/14 00:47:13;;;;;;;0.10;0.10;;;9.20;99.90;;;;;;5035677;28;20509;-67
2023/05/14 00:49:40;;;;;;;0.20;0.20;;;9.20;99.90;;;;;;5035874;28;20068;-68
2023/05/14 00:52:06;;;;;;;0.10;0.10;;;9.30;99.90;;;;;;5035369;28;20037;-67
2023/05/14 00:54:32;;;;;;;0.10;0.10;;;9.30;99.90;;;;;;5035620;28;20052;-67
2023/05/14 00:56:58;;;;;;;0.17;0.17;;;9.30;99.90;;;;;;5035514;28;20041;-67
2023/05/14 00:59:24;;;;;;;0.20;0.20;;;9.30;99.90;;;;;;5035415;28;20026;-67
2023/05/14 01:01:50;;;;;;;0.20;0.20;;;9.40;99.90;;;;;;5035464;28;20487;-67
2023/05/14 01:04:16;;;;;;;0.10;0.10;;;9.40;99.90;;;;;;5035368;28;20018;-67
2023/05/14 01:06:56;;;;;;;0.20;0.20;;;9.40;99.90;;;;;;5034945;28;20028;-67
2023/05/14 01:09:49;;;;;;;0.10;0.10;;;9.50;99.90;;;;;;5035375;28;20045;-68
2023/05/14 01:12:37;;;;;;;0.22;0.22;;;9.50;99.90;;;;;;5035618;28;20026;-67
2023/05/14 01:15:11;;;;;;;0.10;0.10;;;9.50;99.90;;;;;;4996600;28;20041;-67
2023/05/14 01:17:41;;;;;;;;;;;9.50;99.90;;;;;;5035199;28;20056;-66
2023/05/14 01:20:08;;;;;;;0.10;0.10;;;9.50;99.90;;;;;;5035304;28;19962;-68
2023/05/14 01:22:33;;;;;;;0.20;0.20;;;9.50;99.90;;;;;;5035342;28;20026;-67
2023/05/14 01:24:59;;;;;;;0.20;0.20;;;9.50;99.90;;;;;;5034992;28;20479;-67
2023/05/14 01:27:33;;;;;;;0.20;0.20;;;9.50;99.90;;;;;;5034940;28;20033;-67
2023/05/14 01:30:08;;;;;;;0.20;0.20;;;9.60;99.90;;;;;;5034695;28;20028;-67
2023/05/14 01:32:35;;;;;;;0.20;0.20;;;9.60;99.90;;;;;;5022487;28;20033;-67
2023/05/14 01:35:01;;;;;;;0.20;0.20;;;9.50;99.90;;;;;;5020499;28;20509;-67
2023/05/14 01:37:28;;;;;;;0.20;0.20;;;9.50;99.90;;;;;;5026115;28;20109;-67
2023/05/14 01:39:55;;;;;;;0.20;0.20;;;9.50;99.90;;;;;;5014414;28;20116;-67
2023/05/14 01:42:21;;;;;;;0.10;0.10;;;9.50;99.90;;;;;;5017743;28;20037;-67
2023/05/14 01:44:47;;;;;;;0.20;0.20;;;9.40;99.90;;;;;;5013294;28;20048;-67
2023/05/14 01:47:12;;;;;;;0.20;0.20;;;9.40;99.90;;;;;;5013374;28;20488;-67
2023/05/14 01:49:38;;;;;;;0.20;0.20;;;9.40;99.90;;;;;;4995067;28;20531;-67
2023/05/14 01:52:04;;;;;;;0.20;0.20;;;9.30;99.90;;;;;;5004269;28;20109;-67
2023/05/14 01:54:30;;;;;;;0.15;0.15;;;9.30;99.90;;;;;;5014929;28;20112;-67
2023/05/14 01:56:55;;;;;;;0.20;0.20;;;9.20;99.90;;;;;;5013238;28;20488;-67
2023/05/14 01:59:21;;;;;;;0.20;0.20;;;9.20;99.90;;;;;;5014167;28;20052;-67
2023/05/14 02:01:46;;;;;;;0.20;0.20;;;9.10;99.90;;;;;;5018759;28;20018;-67
2023/05/14 02:04:12;;;;;;;0.20;0.20;;;9.00;99.90;;;;;;5021447;28;20030;-68
2023/05/14 02:06:37;;;;;;;0.20;0.20;;;9.00;99.90;;;;;;5013994;28;20025;-67
2023/05/14 02:09:04;;;;;;;0.20;0.20;;;8.80;99.90;;;;;;5015983;28;20082;-67
2023/05/14 02:11:30;;;;;;;0.20;0.20;;;8.80;99.90;;;;;;5033535;28;20041;-68
2023/05/14 02:13:55;;;;;;;0.20;0.20;;;8.80;99.90;;;;;;5030708;28;20025;-67
2023/05/14 02:16:21;;;;;;;0.15;0.15;;;8.80;99.90;;;;;;5014095;28;20045;-68
2023/05/14 02:18:46;;;;;;;0.28;0.28;;;8.70;99.90;;;;;;5076875;23;20392;-73
2023/05/14 02:21:12;;;;;;;0.20;0.20;;;8.70;99.90;;;;;;5029160;28;20026;-72
2023/05/14 02:23:37;;;;;;;0.15;0.15;;;8.60;99.90;;;;;;5014142;28;20398;-73
2023/05/14 02:26:03;;;;;;;0.20;0.20;;;8.60;99.90;;;;;;5013809;28;20030;-73
2023/05/14 02:28:28;;;;;;;0.20;0.20;;;8.60;99.90;;;;;;5025802;28;20438;-72
2023/05/14 02:30:59;;;;;;;0.20;0.20;;;8.60;99.90;;;;;;5032734;28;20113;-72
2023/05/14 02:33:24;;;;;;;0.20;0.20;;;8.50;99.90;;;;;;5035355;28;20113;-74
2023/05/14 02:35:50;;;;;;;0.20;0.20;;;8.50;99.90;;;;;;5036736;28;20108;-72
2023/05/14 02:38:15;;;;;;;0.20;0.20;;;8.40;99.90;;;;;;5053143;28;20475;-74
2023/05/14 02:40:41;;;;;;;0.10;0.10;;;8.40;99.90;;;;;;5051005;28;20033;-74
2023/05/14 02:43:06;;;;;;;0.20;0.20;;;8.40;99.90;;;;;;5040785;28;20025;-74
2023/05/14 02:45:32;;;;;;;0.20;0.20;;;8.30;99.90;;;;;;5032658;28;20032;-74
2023/05/14 02:47:58;;;;;;;0.20;0.20;;;8.30;99.90;;;;;;5033598;28;20047;-73
2023/05/14 02:50:23;;;;;;;0.10;0.10;;;8.20;99.90;;;;;;5033202;28;20021;-74
2023/05/14 02:52:49;;;;;;;0.20;0.20;;;8.20;99.90;;;;;;5037150;28;20037;-74
2023/05/14 02:55:14;;;;;;;0.20;0.20;;;8.10;99.90;;;;;;5032805;28;20029;-74
2023/05/14 02:57:40;;;;;;;0.20;0.20;;;8.10;99.90;;;;;;5032402;28;20036;-74
2023/05/14 03:00:06;;;;;;;0.30;0.30;;;8.10;99.90;;;;;;5033287;28;20033;-74
2023/05/14 03:02:31;;;;;;;0.30;0.30;;;8.00;99.90;;;;;;5046874;28;20028;-73
2023/05/14 03:04:57;;;;;;;0.20;0.20;;;8.00;99.90;;;;;;5053279;28;20028;-74
2023/05/14 03:07:22;;;;;;;0.20;0.20;;;8.00;99.90;;;;;;5048246;28;20075;-74
2023/05/14 03:09:48;;;;;;;0.20;0.20;;;8.00;99.90;;;;;;5031859;28;20483;-74
2023/05/14 03:12:14;;;;;;;0.10;0.10;;;8.00;99.90;;;;;;5014450;28;20029;-74
2023/05/14 03:14:39;;;;;;;0.20;0.20;;;8.00;99.90;;;;;;5018519;28;20022;-74
2023/05/14 03:17:05;;;;;;;0.15;0.15;;;7.90;99.90;;;;;;5052627;28;20028;-74
2023/05/14 03:19:30;;;;;;;0.20;0.20;;;8.00;99.90;;;;;;5052544;28;20043;-74
2023/05/14 03:21:56;;;;;;;0.20;0.20;;;8.00;99.90;;;;;;5028376;28;20019;-73
2023/05/14 03:24:21;;;;;;;0.20;0.20;;;8.00;99.90;;;;;;5032151;28;20105;-74
2023/05/14 03:26:47;;;;;;;0.20;0.20;;;8.00;99.90;;;;;;5044739;28;20131;-74
2023/05/14 03:29:15;;;;;;;0.20;0.20;;;8.00;99.90;;;;;;5052656;28;20025;-74
2023/05/14 03:31:41;;;;;;;0.30;0.30;;;8.00;99.90;;;;;;5052561;28;20021;-74
2023/05/14 03:34:06;;;;;;;0.20;0.20;;;8.00;99.90;;;;;;5052190;28;20025;-73
2023/05/14 03:36:32;;;;;;;0.20;0.20;;;8.00;99.90;;;;;;5050000;28;20091;-74
2023/05/14 03:38:58;;;;;;;0.17;0.17;;;8.00;99.90;;;;;;5048849;28;20060;-74
2023/05/14 03:41:23;;;;;;;0.20;0.20;;;8.00;99.90;;;;;;5033828;28;20059;-74
2023/05/14 03:43:49;;;;;;;0.20;0.20;;;8.00;99.90;;;;;;5047801;28;20025;-73
2023/05/14 03:46:14;;;;;;;0.30;0.30;;;8.10;99.90;;;;;;5052530;28;20072;-73
2023/05/14 03:48:41;;;;;;;0.20;0.20;;;8.10;99.90;;;;;;5014599;28;20132;-73
2023/05/14 03:51:06;;;;;;;0.20;0.20;;;8.20;99.90;;;;;;5032636;28;20018;-73
2023/05/14 03:53:32;;;;;;;0.20;0.20;;;8.20;99.90;;;;;;5032636;28;20021;-73
2023/05/14 03:55:58;;;;;;;0.20;0.20;;;8.20;99.90;;;;;;5031824;28;20022;-73
2023/05/14 03:58:23;;;;;;;0.20;0.20;;;8.30;99.90;;;;;;5034621;28;20530;-73
2023/05/14 04:00:49;;;;;;;0.10;0.10;;;8.40;99.90;;;;;;5032673;28;20040;-73
2023/05/14 04:03:15;;;;;;;0.10;0.10;;;8.40;99.90;;;;;;5020598;28;20025;-73
2023/05/14 04:05:40;;;;;;;0.20;0.20;;;8.50;99.90;;;;;;5032432;28;20030;-73
2023/05/14 04:08:06;;;;;;;0.10;0.10;;;8.60;99.90;;;;;;5034641;28;20017;-73
2023/05/14 04:10:31;;;;;;;0.20;0.20;;;8.60;99.90;;;;;;5054797;28;20029;-73
2023/05/14 04:12:57;;;;;;;0.20;0.20;;;8.70;99.90;;;;;;5056050;28;20029;-73
2023/05/14 04:15:22;;;;;;;0.20;0.20;;;8.80;99.90;;;;;;5046105;28;20480;-73
2023/05/14 04:17:48;;;;;;;0.10;0.10;;;8.80;99.90;;;;;;5018376;28;20038;-73
2023/05/14 04:20:14;;;;;;;0.20;0.20;;;8.90;99.90;;;;;;5038939;28;20049;-73
2023/05/14 04:22:40;;;;;;;0.30;0.30;;;9.00;99.90;;;;;;5036494;28;20109;-73
2023/05/14 04:25:06;;;;;;;0.10;0.10;;;9.10;99.90;;;;;;5035735;28;20029;-73
2023/05/14 04:27:32;;;;;;;0.20;0.20;;;9.20;99.90;;;;;;5035663;28;20033;-74
2023/05/14 04:29:57;;;;;;;0.20;0.20;;;9.20;99.90;;;;;;5035532;28;20029;-73
2023/05/14 04:32:23;;;;;;;0.20;0.20;;;9.30;99.90;;;;;;5037287;28;20026;-73
2023/05/14 04:34:49;;;;;;;0.10;0.10;;;9.40;99.90;;;;;;5035811;28;20394;-73
2023/05/14 04:37:14;;;;;;;0.10;0.10;;;9.40;99.90;;;;;;5035440;28;20022;-74
2023/05/14 04:39:40;;;;;;;0.20;0.20;;;9.60;99.90;;;;;;5035435;28;20104;-73
2023/05/14 04:42:06;;;;;;;0.20;0.20;;;9.70;99.90;;;;;;5042279;28;20109;-73
2023/05/14 04:44:33;;;;;;;0.20;0.20;;;9.80;99.90;;;;;;5035947;28;20021;-73
2023/05/14 04:46:59;;;;;;;0.20;0.20;;;9.90;99.90;;;;;;5034714;28;20041;-73
2023/05/14 04:49:24;;;;;;;0.20;0.20;;;10.10;99.90;;;;;;5035506;28;20064;-74
2023/05/14 04:51:50;;;;;;;0.20;0.20;;;10.30;99.90;;;;;;5036365;28;20080;-73
2023/05/14 04:54:15;;;;;;;0.20;0.20;;;10.40;99.90;;;;;;5055459;28;20033;-74
2023/05/14 04:56:41;;;;;;;0.20;0.20;;;10.60;99.90;;;;;;5054663;28;20033;-74
2023/05/14 04:59:06;;;;;;;0.20;0.20;;;10.80;99.90;;;;;;5055236;28;20029;-73
2023/05/14 05:01:32;;;;;;;0.20;0.20;;;11.10;99.90;;;;;;5045920;28;20051;-73
2023/05/14 05:03:57;;;;;;;0.20;0.20;;;11.20;99.90;;;;;;5035182;28;20064;-73
2023/05/14 05:06:23;;;;;;;0.10;0.10;;;11.40;99.90;;;;;;5040030;28;20482;-73
2023/05/14 05:08:48;;;;;;;0.10;0.10;;;11.60;99.90;;;;;;5054467;28;20106;-74
2023/05/14 05:11:14;;;;;;;0.20;0.20;;;11.80;99.90;;;;;;5054575;28;20044;-73
2023/05/14 05:13:40;;;;;;;0.10;0.10;;;11.90;99.90;;;;;;5050857;28;20093;-73
2023/05/14 05:16:06;;;;;;;0.30;0.30;;;12.10;99.90;;;;;;5054558;28;20029;-74
2023/05/14 05:18:31;;;;;;;0.20;0.20;;;12.30;99.90;;;;;;5051434;28;20083;-73
2023/05/14 05:20:57;;;;;;;0.20;0.20;;;12.50;99.90;;;;;;5054276;28;20048;-74
2023/05/14 05:23:22;;;;;;;0.20;0.20;;;12.60;99.90;;;;;;5037209;28;20479;-74
2023/05/14 05:25:49;;;;;;;0.15;0.15;;;12.80;99.90;;;;;;5054688;28;20028;-73
2023/05/14 05:28:14;;;;;;;0.10;0.10;;;13.00;99.90;;;;;;5054605;28;20092;-74
2023/05/14 05:30:40;;;;;;;0.28;0.28;;;13.10;99.90;;;;;;5054773;28;20450;-74
2023/05/14 05:33:06;;;;;;;0.20;0.20;;;13.30;99.90;;;;;;5054461;28;20025;-74
2023/05/14 05:35:31;;;;;;;0.20;0.20;;;13.50;99.90;;;;;;5054109;28;20029;-74
2023/05/14 05:37:57;;;;;;;0.20;0.20;;;13.70;99.90;;;;;;5036730;28;20068;-74
2023/05/14 05:40:22;;;;;;;0.20;0.20;;;13.80;99.90;;;;;;5048990;28;20025;-74
2023/05/14 05:42:48;;;;;;;0.20;0.20;;;14.00;99.90;;;;;;5036748;28;20028;-73
2023/05/14 05:45:14;;;;;;;0.20;0.20;;;14.10;99.90;;;;;;5042287;28;20025;-74
2023/05/14 05:47:39;;;;;;;0.10;0.10;;;14.30;99.90;;;;;;5036168;28;20040;-74
2023/05/14 05:50:06;;;;;;;0.10;0.10;;;14.40;99.90;;;;;;5040748;28;20108;-74
2023/05/14 05:52:31;;;;;;;0.20;0.20;;;14.70;99.90;;;;;;5054080;28;20028;-74
2023/05/14 05:54:57;;;;;;;0.20;0.20;;;15.00;99.90;;;;;;5054213;28;20040;-74
2023/05/14 05:57:22;;;;;;;0.20;0.20;;;15.30;99.90;;;;;;5053293;28;20028;-74
2023/05/14 05:59:48;;;;;;;0.20;0.20;;;15.50;99.90;;;;;;5054408;28;20029;-74
2023/05/14 06:02:14;;;;;;;0.13;0.13;;;15.80;99.90;;;;;;5036345;28;20482;-74
2023/05/14 06:04:39;;;;;;;0.20;0.20;;;15.90;99.90;;;;;;5054416;28;20074;-74
2023/05/14 06:07:05;;;;;;;0.10;0.10;;;16.00;99.90;;;;;;5053799;28;20067;-74
2023/05/14 06:09:30;;;;;;;0.20;0.20;;;16.10;99.90;;;;;;5054109;28;20078;-73
2023/05/14 06:11:56;;;;;;;0.10;0.10;;;16.30;99.90;;;;;;5054358;28;20052;-74
2023/05/14 06:14:22;;;;;;;0.10;0.10;;;16.50;99.90;;;;;;5053746;28;20036;-73
2023/05/14 06:16:47;;;;;;;0.20;0.20;;;16.60;99.90;;;;;;5054290;28;20044;-73
2023/05/14 06:19:13;;;;;;;0.15;0.15;;;16.60;99.90;;;;;;5053660;28;20029;-73
2023/05/14 06:21:38;;;;;;;0.20;0.20;;;16.80;99.90;;;;;;5054444;28;20032;-76
2023/05/14 06:24:04;;;;;;;0.10;0.10;;;16.80;99.90;;;;;;5056672;28;20389;-77
2023/05/14 06:26:30;;;;;;;0.20;0.20;;;16.80;99.90;;;;;;5062020;28;20505;-78
2023/05/14 06:28:55;;;;;;;0.10;0.10;;;16.90;99.90;;;;;;5054578;28;20027;-77
2023/05/14 06:31:21;;;;;;;0.10;0.10;;;17.10;99.90;;;;;;5053165;28;20028;-77
2023/05/14 06:33:46;;;;;;;0.20;0.20;;;17.20;99.90;;;;;;5053689;28;20536;-77
2023/05/14 06:36:12;;;;;;;0.10;0.10;;;17.20;99.90;;;;;;5035767;28;20028;-77
2023/05/14 06:38:37;;;;;;;0.15;0.15;;;17.20;99.90;;;;;;5036008;28;20031;-77
2023/05/14 06:41:03;;;;;;;0.10;0.10;;;17.40;99.90;;;;;;5035302;28;20506;-75
2023/05/14 06:43:28;;;;;;;0.20;0.20;;;17.50;99.90;;;;;;5053760;28;20104;-77
2023/05/14 06:45:54;;;;;;;0.20;0.20;;;17.70;99.90;;;;;;5053607;28;20028;-75
2023/05/14 06:48:20;;;;;;;0.10;0.10;;;17.80;99.90;;;;;;5053345;28;20043;-75
2023/05/14 06:50:47;;;;;;;0.20;0.20;;;17.80;99.90;;;;;;5053367;28;20513;-75
2023/05/14 06:53:13;;;;;;;0.20;0.20;;;17.80;99.90;;;;;;5053048;28;20062;-75
2023/05/14 06:55:38;;;;;;;0.10;0.10;;;18.00;99.90;;;;;;5053537;28;20033;-75
2023/05/14 06:58:07;;;;;;;0.20;0.20;;;18.00;99.90;;;;;;5053444;28;20032;-75
2023/05/14 07:00:33;;;;;;;0.10;0.10;;;18.10;99.90;;;;;;5054396;28;20037;-75
2023/05/14 07:02:59;;;;;;;0.20;0.20;;;18.20;99.90;;;;;;5054385;28;20151;-75
2023/05/14 07:05:25;;;;;;;0.10;0.10;;;18.20;99.90;;;;;;5053192;28;20045;-75
2023/05/14 07:07:50;;;;;;;0.10;0.10;;;18.30;99.90;;;;;;5052600;28;20021;-75
2023/05/14 07:10:16;;;;;;;0.10;0.10;;;18.50;99.90;;;;;;5053105;28;20029;-75
2023/05/14 07:12:41;;;;;;;0.10;0.10;;;18.50;99.90;;;;;;5053070;28;20040;-75
2023/05/14 07:15:07;;;;;;;0.10;0.10;;;18.60;99.90;;;;;;5053065;28;20029;-75
2023/05/14 07:17:33;;;;;;;0.20;0.20;;;18.60;99.90;;;;;;5052770;28;20036;-73
2023/05/14 07:19:59;;;;;;;0.10;0.10;;;18.50;99.90;;;;;;5052764;28;20032;-74
2023/05/14 07:22:24;;;;;;;0.10;0.10;;;18.50;99.90;;;;;;5053014;28;20035;-74
2023/05/14 07:24:50;;;;;;;0.10;0.10;;;18.60;99.90;;;;;;5053237;28;20104;-74
2023/05/14 07:27:18;;;;;;;0.10;0.10;;;18.80;99.90;;;;;;5052323;28;20057;-74
2023/05/14 07:29:44;;;;;;;0.20;0.20;;;18.90;99.90;;;;;;5048356;28;20032;-74
2023/05/14 07:32:09;;;;;;;0.10;0.10;;;19.00;99.90;;;;;;5053118;28;20415;-74
2023/05/14 07:34:35;;;;;;;0.10;0.10;;;19.20;99.90;;;;;;5041538;28;20049;-74
2023/05/14 07:37:01;;;;;;;0.10;0.10;;;19.20;99.90;;;;;;5032847;28;20036;-74
2023/05/14 07:39:26;;;;;;;0.10;0.10;;;19.30;99.90;;;;;;5032451;28;20407;-74
2023/05/14 07:41:53;;;;;;;0.10;0.10;;;19.50;99.90;;;;;;5034377;28;20018;-77
2023/05/14 07:44:19;;;;;;;0.10;0.10;;;19.50;99.90;;;;;;5037202;28;20014;-75
2023/05/14 07:46:45;;;;;;;0.10;0.10;;;19.60;99.90;;;;;;5036905;28;20031;-75
2023/05/14 07:49:11;;;;;;;0.10;0.10;;;20.00;99.90;;;;;;5037011;28;20022;-74
2023/05/14 07:51:36;;;;;;;0.10;0.10;;;20.20;99.90;;;;;;5036666;28;20026;-75
2023/05/14 07:54:02;;;;;;;0.10;0.10;;;20.40;99.90;;;;;;5054018;28;20029;-75
2023/05/14 07:56:27;;;;;;;0.10;0.10;;;20.60;99.90;;;;;;5056435;28;20119;-75
2023/05/14 07:58:53;;;;;;;0.10;0.10;;;20.80;99.90;;;;;;5056357;28;20032;-75
2023/05/14 08:01:18;;;;;;;0.00;0.00;;;21.00;99.90;;;;;;5056793;28;20074;-75
2023/05/14 08:03:44;;;;;;;0.10;0.10;;;20.90;99.90;;;;;;5056830;28;20025;-77
2023/05/14 08:06:10;;;;;;;0.10;0.10;;;20.70;99.90;;;;;;5056446;28;20081;-77
2023/05/14 08:08:36;;;;;;;0.10;0.10;;;20.60;99.90;;;;;;5055857;28;20364;-75
2023/05/14 08:11:02;;;;;;;0.10;0.10;;;20.70;99.90;;;;;;5056444;28;20060;-77
2023/05/14 08:13:27;;;;;;;0.10;0.10;;;20.70;99.90;;;;;;5056860;28;20035;-77
2023/05/14 08:15:53;;;;;;;0.10;0.10;;;20.90;99.90;;;;;;5056332;28;20024;-75
2023/05/14 08:18:19;;;;;;;0.00;0.00;;;21.00;99.90;;;;;;5067132;23;20042;-73
2023/05/14 08:20:44;;;;;;;0.10;0.10;;;20.90;99.90;;;;;;4998763;28;20037;-73
2023/05/14 08:23:10;;;;;;;0.10;0.10;;;20.90;99.90;;;;;;5016288;28;20022;-74
2023/05/14 08:25:36;;;;;;;0.10;0.10;;;20.90;99.90;;;;;;5016381;28;20391;-74
2023/05/14 08:28:01;;;;;;;0.10;0.10;;;20.80;99.90;;;;;;5019118;28;20061;-74
2023/05/14 08:30:27;;;;;;;0.10;0.10;;;20.90;99.90;;;;;;5035973;28;20028;-73
2023/05/14 08:32:53;;;;;;;0.10;0.10;;;21.10;99.90;;;;;;5035553;28;20026;-74
2023/05/14 08:35:18;;;;;;;0.10;0.10;;;21.00;99.90;;;;;;5036284;28;20112;-73
2023/05/14 08:37:44;;;;;;;0.10;0.10;;;21.10;99.90;;;;;;5035717;28;20075;-74
2023/05/14 08:40:11;;;;;;;0.05;0.05;;;21.30;99.90;;;;;;5035715;28;20111;-74
2023/05/14 08:42:39;;;;;;;0.10;0.10;;;21.30;99.90;;;;;;5035316;28;20022;-73
2023/05/14 08:45:11;;;;;;;0.10;0.10;;;21.50;99.90;;;;;;5033547;28;20103;-72
2023/05/14 08:47:37;;;;;;;0.10;0.10;;;21.50;99.90;;;;;;5023454;28;20034;-74
2023/05/14 08:50:05;;;;;;;0.10;0.10;;;21.60;99.90;;;;;;5015269;28;20034;-75
2023/05/14 08:52:31;;;;;;;0.05;0.05;;;21.60;99.90;;;;;;5017391;28;20100;-74
2023/05/14 08:55:00;;;;;;;0.10;0.10;;;21.60;99.90;;;;;;5015973;28;20431;-74
2023/05/14 08:57:27;;;;;;;0.10;0.10;;;21.60;99.90;;;;;;5015737;28;20185;-73
2023/05/14 08:59:53;;;;;;;0.10;0.10;;;22.00;99.90;;;;;;5020302;28;20061;-73
2023/05/14 09:02:28;;;;;;;0.10;0.10;;;22.10;99.90;;;;;;5034919;28;20502;-73
2023/05/14 09:04:58;;;;;;;0.00;0.00;;;22.20;99.90;;;;;;5035488;28;20029;-73
2023/05/14 09:07:24;;;;;;;0.10;0.10;;;22.70;99.90;;;;;;5033904;28;20075;-73
2023/05/14 09:09:53;;;;;;;0.10;0.10;;;22.80;99.90;;;;;;5034575;28;20453;-72
2023/05/14 09:12:20;;;;;;;0.10;0.10;;;23.00;99.90;;;;;;5035171;28;20037;-72
2023/05/14 09:14:47;;;;;;;0.10;0.10;;;23.30;99.90;;;;;;5035092;28;20025;-73
2023/05/14 09:17:12;;;;;;;0.10;0.10;;;23.50;99.90;;;;;;5035049;28;20440;-73
2023/05/14 09:19:42;;;;;;;0.00;0.00;;;23.60;99.90;;;;;;5035085;28;20060;-73
2023/05/14 09:22:12;;;;;;;0.00;0.00;;;23.50;99.90;;;;;;5034656;28;20056;-73
2023/05/14 09:24:38;;;;;;;0.10;0.10;;;23.50;99.90;;;;;;5035280;28;20028;-73
2023/05/14 09:27:05;;;;;;;0.00;0.00;;;24.00;99.90;;;;;;5034919;28;20018;-73
2023/05/14 09:29:31;;;;;;;0.00;0.00;;;24.20;99.90;;;;;;5034707;28;20029;-74
2023/05/14 09:31:59;;;;;;;0.00;0.00;;;23.50;99.90;;;;;;5035077;28;20033;-74
2023/05/14 09:34:29;;;;;;;0.03;0.03;;;23.70;99.90;;;;;;5034389;28;20044;-74
2023/05/14 09:37:03;;;;;;;0.03;0.03;;;24.10;99.90;;;;;;5035003;28;20068;-73
2023/05/14 09:39:30;;;;;;;0.00;0.00;;;24.10;99.90;;;;;;5034571;28;20438;-74
2023/05/14 09:41:56;;;;;;;0.00;0.00;;;24.50;99.90;;;;;;5034053;28;20518;-74
2023/05/14 09:44:22;;;;;;;0.00;0.00;;;24.20;99.90;;;;;;5034736;28;20030;-73
2023/05/14 09:46:49;;;;;;;0.00;0.00;;;24.10;99.90;;;;;;5034607;28;20022;-74
2023/05/14 09:49:14;;;;;;;0.00;0.00;;;23.80;99.90;;;;;;5033442;28;20029;-75
2023/05/14 09:51:40;;;;;;;0.00;0.00;;;24.10;99.90;;;;;;5031069;28;20392;-74
2023/05/14 09:54:07;;;;;;;0.00;0.00;;;24.40;99.90;;;;;;5032659;28;20070;-74
2023/05/14 09:56:35;;;;;;;0.10;0.10;;;24.30;99.90;;;;;;5025662;28;20484;-74
2023/05/14 09:59:01;;;;;;;0.00;0.00;;;24.50;99.90;;;;;;5022840;28;20048;-74
2023/05/14 10:01:28;;;;;;;0.00;0.00;;;24.60;99.90;;;;;;5033988;28;20022;-74
2023/05/14 10:03:54;;;;;;;0.00;0.00;;;24.70;99.90;;;;;;5033675;28;20044;-74
2023/05/14 10:06:27;;;;;;;0.00;0.00;;;24.90;99.90;;;;;;5033207;28;20049;-73
2023/05/14 10:08:56;;;;;;;0.10;0.10;;;25.10;99.90;;;;;;5034085;28;20033;-74
2023/05/14 10:11:30;;;;;;;0.00;0.00;;;25.10;99.90;;;;;;5033374;28;20037;-73
2023/05/14 10:14:04;;;;;;;0.00;0.00;;;25.50;99.90;;;;;;5034320;28;20143;-73
2023/05/14 10:16:36;;;;;;;0.00;0.00;;;25.40;99.90;;;;;;5033998;28;20464;-74
2023/05/14 10:19:14;;;;;;;0.00;0.00;;;25.10;99.90;;;;;;5033591;28;20033;-74
2023/05/14 10:21:40;;;;;;;0.00;0.00;;;24.90;99.90;;;;;;5033322;28;20017;-74
2023/05/14 10:24:07;;;;;;;0.00;0.00;;;24.60;99.90;;;;;;5033846;28;20025;-74
2023/05/14 10:26:40;;;;;;;0.00;0.00;;;24.40;99.90;;;;;;5070849;28;20383;-73
2023/05/14 10:29:08;;;;;;;0.00;0.00;;;24.50;99.90;;;;;;5065210;28;20035;-73
2023/05/14 10:31:47;;;;;;;0.00;0.00;;;24.30;99.90;;;;;;5069277;28;20021;-73
2023/05/14 10:34:42;;;;;;;0.00;0.00;;;24.40;99.90;;;;;;5069914;28;20021;-73
2023/05/14 10:37:28;;;;;;;0.10;0.10;;;24.50;99.90;;;;;;5070406;28;20498;-73
2023/05/14 10:40:00;;;;;;;0.00;0.00;;;24.90;99.90;;;;;;5070086;28;20025;-73
2023/05/14 10:42:39;;;;;;;0.00;0.00;;;25.10;99.90;;;;;;5067431;28;20112;-73
2023/05/14 10:45:07;;;;;;;0.00;0.00;;;25.10;99.90;;;;;;5049429;28;20501;-74
2023/05/14 10:47:41;;;;;;;0.00;0.00;;;25.10;99.90;;;;;;5049979;28;20386;-72
2023/05/14 10:50:09;;;;;;;0.00;0.00;;;24.90;99.90;;;;;;5048662;28;20483;-74
2023/05/14 10:52:36;;;;;;;0.00;0.00;;;24.80;99.90;;;;;;5049881;28;20065;-73
2023/05/14 10:55:06;;;;;;;0.00;0.00;;;24.70;99.90;;;;;;5049498;28;20025;-72
2023/05/14 10:57:33;;;;;;;0.00;0.00;;;24.70;99.90;;;;;;5050190;28;20040;-73
2023/05/14 11:00:00;;;;;;;0.00;0.00;;;24.90;99.90;;;;;;5049616;28;20034;-73
2023/05/14 11:02:27;;;;;;;0.00;0.00;;;24.90;99.90;;;;;;5049313;28;20335;-73
2023/05/14 11:05:05;;;;;;;0.00;0.00;;;24.60;99.90;;;;;;5049015;28;20078;-73
2023/05/14 11:07:32;;;;;;;0.00;0.00;;;24.60;99.90;;;;;;5049564;28;20014;-73
2023/05/14 11:10:00;;;;;;;0.10;0.10;;;24.70;99.90;;;;;;5068793;28;20115;-73
2023/05/14 11:12:27;;;;;;;0.00;0.00;;;25.40;99.90;;;;;;5069222;28;20381;-74
2023/05/14 11:14:53;;;;;;;0.00;0.00;;;25.50;99.90;;;;;;5069185;28;20025;-74
2023/05/14 11:17:19;;;;;;;0.00;0.00;;;25.50;99.90;;;;;;5069211;28;20076;-74
2023/05/14 11:19:44;;;;;;;0.00;0.00;;;25.10;99.90;;;;;;5069024;28;20498;-74
2023/05/14 11:22:13;;;;;;;0.00;0.00;;;24.90;99.90;;;;;;5068752;28;20029;-74
2023/05/14 11:24:42;;;;;;;0.00;0.00;;;25.00;99.90;;;;;;5069024;28;20524;-75
2023/05/14 11:27:08;;;;;;;0.00;0.00;;;25.30;99.90;;;;;;5069519;28;20029;-73
2023/05/14 11:29:37;;;;;;;0.00;0.00;;;25.30;99.90;;;;;;5067765;28;20115;-74
2023/05/14 11:32:06;;;;;;;0.00;0.00;;;25.30;99.90;;;;;;5068411;28;20100;-74
2023/05/14 11:34:33;;;;;;;0.00;0.00;;;25.20;99.90;;;;;;5068848;28;20032;-74
2023/05/14 11:37:05;;;;;;;0.00;0.00;;;25.20;99.90;;;;;;5061399;28;20017;-74
2023/05/14 11:39:37;;;;;;;0.00;0.00;;;25.10;99.90;;;;;;5055809;28;20019;-73
2023/05/14 11:42:13;;;;;;;0.00;0.00;;;25.50;99.90;;;;;;5055057;28;20382;-73
2023/05/14 11:44:40;;;;;;;0.00;0.00;;;25.60;99.90;;;;;;5055527;28;20505;-72
2023/05/14 11:47:06;;;;;;;0.00;0.00;;;25.40;99.90;;;;;;5055661;28;20024;-73
2023/05/14 11:49:34;;;;;;;0.00;0.00;;;25.20;99.90;;;;;;5055027;28;20025;-73
2023/05/14 11:52:09;;;;;;;0.00;0.00;;;25.00;99.90;;;;;;5053519;28;20025;-72
2023/05/14 11:54:35;;;;;;;0.00;0.00;;;24.60;99.90;;;;;;5055554;28;20108;-73
2023/05/14 11:57:08;;;;;;;0.10;0.10;;;24.80;99.90;;;;;;5055321;28;20025;-73
2023/05/14 11:59:33;;;;;;;0.00;0.00;;;24.50;99.90;;;;;;5055414;28;20087;-74
2023/05/14 12:02:00;;;;;;;0.00;0.00;;;24.40;99.90;;;;;;5055276;28;20036;-74
2023/05/14 12:04:27;;;;;;;0.00;0.00;;;24.40;99.90;;;;;;5054786;28;20025;-73
2023/05/14 12:06:53;;;;;;;0.00;0.00;;;24.70;99.90;;;;;;5055292;28;20048;-73
2023/05/14 12:09:20;;;;;;;0.00;0.00;;;24.60;99.90;;;;;;5055198;28;20083;-74
2023/05/14 12:11:48;;;;;;;0.03;0.03;;;24.90;99.90;;;;;;5055416;28;20021;-74
2023/05/14 12:14:19;;;;;;;0.00;0.00;;;24.70;99.90;;;;;;5055169;28;20048;-75
2023/05/14 12:16:45;;;;;;;0.00;0.00;;;24.60;99.90;;;;;;5054848;28;20025;-75
2023/05/14 12:19:14;;;;;;;0.00;0.00;;;25.30;99.90;;;;;;5055062;28;20191;-75
2023/05/14 12:21:41;;;;;;;0.00;0.00;;;25.80;99.90;;;;;;5053587;28;20021;-74
2023/05/14 12:24:16;;;;;;;0.00;0.00;;;26.10;99.90;;;;;;5055227;28;20013;-75
2023/05/14 12:26:46;;;;;;;0.00;0.00;;;26.50;99.90;;;;;;5055129;28;20040;-74
2023/05/14 12:29:14;;;;;;;0.00;0.00;;;26.90;99.90;;;;;;5054807;28;20025;-75
2023/05/14 12:31:49;;;;;;;0.00;0.00;;;27.20;99.90;;;;;;5054314;28;20063;-75
2023/05/14 12:34:15;;;;;;;0.00;0.00;;;27.20;99.90;;;;;;5053535;28;20025;-75
2023/05/14 12:36:42;;;;;;;0.00;0.00;;;27.10;99.90;;;;;;5055019;28;20025;-74
2023/05/14 12:39:08;;;;;;;0.00;0.00;;;27.00;99.90;;;;;;5054572;28;20025;-75
2023/05/14 12:41:34;;;;;;;0.00;0.00;;;27.00;99.90;;;;;;5054632;28;20386;-75
2023/05/14 12:44:02;;;;;;;0.00;0.00;;;27.40;99.90;;;;;;5054041;28;20057;-75
2023/05/14 12:46:28;;;;;;;0.00;0.00;;;27.20;99.90;;;;;;5054454;28;20482;-75
2023/05/14 12:48:54;;;;;;;0.00;0.00;;;27.40;99.90;;;;;;5053634;28;20032;-75